Time,TemperatureF,DewpointF,PressureIn,WindDirection,WindDirectionDegrees,WindSpeedMPH,WindSpeedGustMPH,Humidity,HourlyPrecipIn,Conditions,Clouds,dailyrainin,SoftwareType,DateUTC
2013-10-22 00:02:00,27.9,16.5,31.89,West,270,4.0,4.0,62,0.00,,,0.00,meteohub,2013-10-22 06:02:00,
2013-10-22 00:07:00,27.9,16.5,31.89,West,270,4.0,4.0,62,0.00,,,0.00,meteohub,2013-10-22 06:07:00,
2013-10-22 00:12:00,27.3,16.0,31.89,West,270,3.0,4.0,62,0.00,,,0.00,meteohub,2013-10-22 06:12:00,
2013-10-22 00:17:00,27.1,16.2,31.89,West,270,3.0,4.0,63,0.00,,,0.00,meteohub,2013-10-22 06:17:00,
2013-10-22 00:22:00,27.1,16.2,31.89,West,270,3.0,4.0,63,0.00,,,0.00,meteohub,2013-10-22 06:22:00,
2013-10-22 00:27:00,27.1,16.2,31.89,West,270,2.0,4.0,63,0.00,,,0.00,meteohub,2013-10-22 06:27:00,
2013-10-22 00:32:00,27.0,16.0,31.89,SW,225,2.0,4.0,63,0.00,,,0.00,meteohub,2013-10-22 06:32:00,
2013-10-22 00:37:00,27.0,16.0,31.89,West,270,2.0,3.0,63,0.00,,,0.00,meteohub,2013-10-22 06:37:00,
2013-10-22 00:42:00,26.8,15.8,31.89,SW,225,2.0,3.0,63,0.00,,,0.00,meteohub,2013-10-22 06:42:00,
2013-10-22 00:47:00,26.8,15.8,31.88,West,270,2.0,3.0,63,0.00,,,0.00,meteohub,2013-10-22 06:47:00,
2013-10-22 00:52:00,26.6,16.0,31.88,NNW,338,2.0,4.0,64,0.00,,,0.00,meteohub,2013-10-22 06:52:00,
2013-10-22 00:57:00,26.6,16.0,31.89,West,270,2.0,4.0,64,0.00,,,0.00,meteohub,2013-10-22 06:57:00,
2013-10-22 01:02:00,26.6,16.0,31.89,SW,225,2.0,4.0,64,0.00,,,0.00,meteohub,2013-10-22 07:02:00,
2013-10-22 01:07:00,26.4,16.3,31.89,SW,225,0.0,3.0,65,0.00,,,0.00,meteohub,2013-10-22 07:07:00,
2013-10-22 01:12:00,25.9,15.4,31.89,SW,225,0.0,2.0,64,0.00,,,0.00,meteohub,2013-10-22 07:12:00,
2013-10-22 01:17:00,25.7,15.6,31.89,West,270,2.0,2.0,65,0.00,,,0.00,meteohub,2013-10-22 07:17:00,
2013-10-22 01:22:00,25.5,15.4,31.89,West,270,2.0,2.0,65,0.00,,,0.00,meteohub,2013-10-22 07:22:00,
2013-10-22 01:27:00,25.5,15.8,31.89,West,270,2.0,2.0,66,0.00,,,0.00,meteohub,2013-10-22 07:27:00,
2013-10-22 01:32:00,25.5,15.8,31.89,West,270,2.0,2.0,66,0.00,,,0.00,meteohub,2013-10-22 07:32:00,
2013-10-22 01:37:00,25.5,15.8,31.89,SW,225,3.0,3.0,66,0.00,,,0.00,meteohub,2013-10-22 07:37:00,
2013-10-22 01:42:00,25.3,15.6,31.89,SW,225,2.0,3.0,66,0.00,,,0.00,meteohub,2013-10-22 07:42:00,
2013-10-22 01:47:00,25.2,15.4,31.89,SW,225,2.0,3.0,66,0.00,,,0.00,meteohub,2013-10-22 07:47:00,
2013-10-22 01:52:00,25.0,15.3,31.89,SW,225,0.0,3.0,66,0.00,,,0.00,meteohub,2013-10-22 07:52:00,
2013-10-22 01:57:00,24.6,15.3,31.89,SW,225,1.0,2.0,67,0.00,,,0.00,meteohub,2013-10-22 07:57:00,
2013-10-22 02:02:00,24.4,15.1,31.89,SW,225,0.0,2.0,67,0.00,,,0.00,meteohub,2013-10-22 08:02:00,
2013-10-22 02:07:00,24.4,15.1,31.89,SW,225,0.0,1.0,67,0.00,,,0.00,meteohub,2013-10-22 08:07:00,
2013-10-22 02:12:00,24.4,15.4,31.89,SW,225,0.0,1.0,68,0.00,,,0.00,meteohub,2013-10-22 08:12:00,
2013-10-22 02:17:00,24.4,15.4,31.89,SW,225,0.0,1.0,68,0.00,,,0.00,meteohub,2013-10-22 08:17:00,
2013-10-22 02:22:00,24.3,15.3,31.89,SW,225,0.0,1.0,68,0.00,,,0.00,meteohub,2013-10-22 08:22:00,
2013-10-22 02:27:00,24.1,15.4,31.89,East,90,2.0,2.0,69,0.00,,,0.00,meteohub,2013-10-22 08:27:00,
2013-10-22 02:32:00,23.9,14.9,31.89,NE,45,2.0,2.0,68,0.00,,,0.00,meteohub,2013-10-22 08:32:00,
2013-10-22 02:37:00,23.5,14.5,31.89,East,90,0.0,2.0,68,0.00,,,0.00,meteohub,2013-10-22 08:37:00,
2013-10-22 02:42:00,23.0,14.0,31.89,South,180,1.0,2.0,68,0.00,,,0.00,meteohub,2013-10-22 08:42:00,
2013-10-22 02:47:00,22.6,14.0,31.89,South,180,0.0,2.0,69,0.00,,,0.00,meteohub,2013-10-22 08:47:00,
2013-10-22 02:52:00,22.1,13.8,31.89,South,180,0.0,1.0,70,0.00,,,0.00,meteohub,2013-10-22 08:52:00,
2013-10-22 02:57:00,21.9,13.6,31.90,West,270,0.0,1.0,70,0.00,,,0.00,meteohub,2013-10-22 08:57:00,
2013-10-22 03:02:00,21.6,13.6,31.89,SW,225,0.0,2.0,71,0.00,,,0.00,meteohub,2013-10-22 09:02:00,
2013-10-22 03:07:00,21.4,13.8,31.89,SW,225,2.0,2.0,72,0.00,,,0.00,meteohub,2013-10-22 09:07:00,
2013-10-22 03:12:00,21.2,13.6,31.89,SW,225,1.0,2.0,72,0.00,,,0.00,meteohub,2013-10-22 09:12:00,
2013-10-22 03:17:00,21.0,14.0,31.89,SW,225,1.0,2.0,74,0.00,,,0.00,meteohub,2013-10-22 09:17:00,
2013-10-22 03:22:00,20.8,14.2,31.89,SW,225,2.0,2.0,75,0.00,,,0.00,meteohub,2013-10-22 09:22:00,
2013-10-22 03:27:00,20.8,14.2,31.89,WSW,248,2.0,2.0,75,0.00,,,0.00,meteohub,2013-10-22 09:27:00,
2013-10-22 03:32:00,20.8,14.2,31.89,SW,225,1.0,2.0,75,0.00,,,0.00,meteohub,2013-10-22 09:32:00,
2013-10-22 03:37:00,20.8,14.2,31.89,SW,225,2.0,2.0,75,0.00,,,0.00,meteohub,2013-10-22 09:37:00,
2013-10-22 03:42:00,20.7,14.4,31.89,SW,225,2.0,2.0,76,0.00,,,0.00,meteohub,2013-10-22 09:42:00,
2013-10-22 03:47:00,20.7,14.4,31.89,SW,225,1.0,2.0,76,0.00,,,0.00,meteohub,2013-10-22 09:47:00,
2013-10-22 03:52:00,20.7,14.4,31.89,SW,225,0.0,2.0,76,0.00,,,0.00,meteohub,2013-10-22 09:52:00,
2013-10-22 03:57:00,20.8,14.5,31.89,SW,225,2.0,2.0,76,0.00,,,0.00,meteohub,2013-10-22 09:57:00,
2013-10-22 04:02:00,20.8,14.5,31.89,West,270,1.0,2.0,76,0.00,,,0.00,meteohub,2013-10-22 10:02:00,
2013-10-22 04:07:00,20.8,14.5,31.89,West,270,1.0,2.0,76,0.00,,,0.00,meteohub,2013-10-22 10:07:00,
2013-10-22 04:12:00,21.2,14.9,31.89,SW,225,1.0,2.0,76,0.00,,,0.00,meteohub,2013-10-22 10:12:00,
2013-10-22 04:17:00,21.2,14.9,31.89,West,270,2.0,2.0,76,0.00,,,0.00,meteohub,2013-10-22 10:17:00,
2013-10-22 04:22:00,21.2,14.9,31.88,West,270,2.0,2.0,76,0.00,,,0.00,meteohub,2013-10-22 10:22:00,
2013-10-22 04:27:00,20.8,14.7,31.89,West,270,2.0,2.0,77,0.00,,,0.00,meteohub,2013-10-22 10:27:00,
2013-10-22 04:32:00,20.7,14.5,31.89,SW,225,2.0,2.0,77,0.00,,,0.00,meteohub,2013-10-22 10:32:00,
2013-10-22 04:37:00,20.3,14.2,31.88,West,270,2.0,2.0,77,0.00,,,0.00,meteohub,2013-10-22 10:37:00,
2013-10-22 04:42:00,20.1,14.0,31.88,SW,225,2.0,2.0,77,0.00,,,0.00,meteohub,2013-10-22 10:42:00,
2013-10-22 04:47:00,19.8,13.6,31.89,SW,225,1.0,2.0,77,0.00,,,0.00,meteohub,2013-10-22 10:47:00,
2013-10-22 04:52:00,19.6,13.6,31.89,SW,225,2.0,2.0,77,0.00,,,0.00,meteohub,2013-10-22 10:52:00,
2013-10-22 04:57:00,19.6,13.6,31.89,West,270,2.0,2.0,77,0.00,,,0.00,meteohub,2013-10-22 10:57:00,
2013-10-22 05:02:00,19.6,13.6,31.88,SW,225,2.0,2.0,77,0.00,,,0.00,meteohub,2013-10-22 11:02:00,
2013-10-22 05:07:00,19.4,13.5,31.88,SW,225,2.0,2.0,77,0.00,,,0.00,meteohub,2013-10-22 11:07:00,
2013-10-22 05:12:00,19.6,13.8,31.89,West,270,2.0,2.0,78,0.00,,,0.00,meteohub,2013-10-22 11:12:00,
2013-10-22 05:17:00,19.8,14.0,31.89,SW,225,2.0,2.0,78,0.00,,,0.00,meteohub,2013-10-22 11:17:00,
2013-10-22 05:22:00,19.9,14.5,31.88,SW,225,0.0,2.0,79,0.00,,,0.00,meteohub,2013-10-22 11:22:00,
2013-10-22 05:27:00,20.1,14.7,31.89,NW,315,1.0,2.0,79,0.00,,,0.00,meteohub,2013-10-22 11:27:00,
2013-10-22 05:32:00,20.1,14.7,31.89,SW,225,0.0,2.0,79,0.00,,,0.00,meteohub,2013-10-22 11:32:00,
2013-10-22 05:37:00,20.1,14.7,31.89,West,270,2.0,2.0,79,0.00,,,0.00,meteohub,2013-10-22 11:37:00,
2013-10-22 05:42:00,19.9,14.5,31.89,West,270,0.0,2.0,79,0.00,,,0.00,meteohub,2013-10-22 11:42:00,
2013-10-22 05:47:00,19.8,14.4,31.89,SW,225,2.0,2.0,79,0.00,,,0.00,meteohub,2013-10-22 11:47:00,
2013-10-22 05:52:00,19.8,14.4,31.89,SW,225,2.0,2.0,79,0.00,,,0.00,meteohub,2013-10-22 11:52:00,
2013-10-22 05:57:00,19.8,14.4,31.89,SW,225,2.0,2.0,79,0.00,,,0.00,meteohub,2013-10-22 11:57:00,
2013-10-22 06:02:00,19.8,14.4,31.89,SW,225,0.0,2.0,79,0.00,,,0.00,meteohub,2013-10-22 12:02:00,
2013-10-22 06:07:00,19.8,14.4,31.89,SW,225,0.0,2.0,79,0.00,,,0.00,meteohub,2013-10-22 12:07:00,
2013-10-22 06:12:00,19.4,14.0,31.89,SW,225,0.0,2.0,79,0.00,,,0.00,meteohub,2013-10-22 12:12:00,
2013-10-22 06:17:00,19.4,14.0,31.89,SW,225,0.0,0.0,79,0.00,,,0.00,meteohub,2013-10-22 12:17:00,
2013-10-22 06:22:00,19.4,14.0,31.89,SW,225,0.0,0.0,79,0.00,,,0.00,meteohub,2013-10-22 12:22:00,
2013-10-22 06:27:00,19.4,14.2,31.89,SW,225,0.0,2.0,80,0.00,,,0.00,meteohub,2013-10-22 12:27:00,
2013-10-22 06:32:00,19.2,12.6,31.89,SW,225,1.0,2.0,75,0.00,,,0.00,meteohub,2013-10-22 12:32:00,
2013-10-22 06:37:00,19.0,12.4,31.89,SW,225,0.0,2.0,75,0.00,,,0.00,meteohub,2013-10-22 12:37:00,
2013-10-22 06:42:00,19.0,12.4,31.89,SW,225,0.0,2.0,75,0.00,,,0.00,meteohub,2013-10-22 12:42:00,
2013-10-22 06:47:00,18.9,12.2,31.89,West,270,0.0,2.0,75,0.00,,,0.00,meteohub,2013-10-22 12:47:00,
2013-10-22 06:52:00,18.7,12.0,31.89,SW,225,1.0,2.0,75,0.00,,,0.00,meteohub,2013-10-22 12:52:00,
2013-10-22 06:57:00,18.5,11.8,31.89,SW,225,0.0,2.0,75,0.00,,,0.00,meteohub,2013-10-22 12:57:00,
2013-10-22 07:02:00,18.3,12.0,31.89,SW,225,0.0,2.0,76,0.00,,,0.00,meteohub,2013-10-22 13:02:00,
2013-10-22 07:07:00,18.1,11.8,31.89,SW,225,0.0,2.0,76,0.00,,,0.00,meteohub,2013-10-22 13:07:00,
2013-10-22 07:12:00,18.1,11.8,31.89,SW,225,0.0,0.0,76,0.00,,,0.00,meteohub,2013-10-22 13:12:00,
2013-10-22 07:17:00,18.1,11.8,31.89,SW,225,1.0,2.0,76,0.00,,,0.00,meteohub,2013-10-22 13:17:00,
2013-10-22 07:22:00,18.1,11.8,31.89,SW,225,0.0,2.0,76,0.00,,,0.00,meteohub,2013-10-22 13:22:00,
2013-10-22 07:27:00,18.1,11.8,31.89,South,180,0.0,2.0,76,0.00,,,0.00,meteohub,2013-10-22 13:27:00,
2013-10-22 07:32:00,18.1,11.8,31.89,SW,225,0.0,2.0,76,0.00,,,0.00,meteohub,2013-10-22 13:32:00,
2013-10-22 07:37:00,18.3,12.4,31.89,SE,135,0.0,0.0,77,0.00,,,0.00,meteohub,2013-10-22 13:37:00,
2013-10-22 07:42:00,18.3,12.4,31.89,SE,135,0.0,0.0,77,0.00,,,0.00,meteohub,2013-10-22 13:42:00,
2013-10-22 07:47:00,18.3,12.4,31.90,SE,135,0.0,0.0,77,0.00,,,0.00,meteohub,2013-10-22 13:47:00,
2013-10-22 07:52:00,18.3,12.4,31.90,South,180,0.0,0.0,77,0.00,,,0.00,meteohub,2013-10-22 13:52:00,
2013-10-22 07:57:00,18.5,12.6,31.90,SE,135,0.0,0.0,77,0.00,,,0.00,meteohub,2013-10-22 13:57:00,
2013-10-22 08:02:00,18.9,12.9,31.90,NE,45,0.0,1.0,77,0.00,,,0.00,meteohub,2013-10-22 14:02:00,
2013-10-22 08:07:00,19.0,13.1,31.90,South,180,1.0,2.0,77,0.00,,,0.00,meteohub,2013-10-22 14:07:00,
2013-10-22 08:12:00,19.4,14.5,31.90,South,180,0.0,2.0,81,0.00,,,0.00,meteohub,2013-10-22 14:12:00,
2013-10-22 08:17:00,19.8,15.1,31.90,South,180,0.0,2.0,82,0.00,,,0.00,meteohub,2013-10-22 14:17:00,
2013-10-22 08:22:00,20.1,15.4,31.90,South,180,0.0,2.0,82,0.00,,,0.00,meteohub,2013-10-22 14:22:00,
2013-10-22 08:27:00,20.8,16.2,31.90,East,90,0.0,2.0,82,0.00,,,0.00,meteohub,2013-10-22 14:27:00,
2013-10-22 08:32:00,21.4,16.5,31.90,East,90,0.0,2.0,81,0.00,,,0.00,meteohub,2013-10-22 14:32:00,
2013-10-22 08:37:00,22.5,17.6,31.91,NE,45,1.0,2.0,81,0.00,,,0.00,meteohub,2013-10-22 14:37:00,
2013-10-22 08:42:00,24.1,18.9,31.91,East,90,2.0,2.0,80,0.00,,,0.00,meteohub,2013-10-22 14:42:00,
2013-10-22 08:47:00,25.7,20.1,31.91,NE,45,2.0,2.0,79,0.00,,,0.00,meteohub,2013-10-22 14:47:00,
2013-10-22 08:52:00,26.8,20.3,31.91,NE,45,2.0,2.0,76,0.00,,,0.00,meteohub,2013-10-22 14:52:00,
2013-10-22 08:57:00,27.5,20.3,31.91,North,0,2.0,3.0,74,0.00,,,0.00,meteohub,2013-10-22 14:57:00,
2013-10-22 09:02:00,28.4,21.7,31.91,NE,45,3.0,3.0,76,0.00,,,0.00,meteohub,2013-10-22 15:02:00,
2013-10-22 09:07:00,28.8,21.6,31.91,NE,45,2.0,3.0,74,0.00,,,0.00,meteohub,2013-10-22 15:07:00,
2013-10-22 09:12:00,29.3,21.0,31.91,North,0,2.0,3.0,71,0.00,,,0.00,meteohub,2013-10-22 15:12:00,
2013-10-22 09:17:00,30.2,21.2,31.91,NE,45,2.0,3.0,69,0.00,,,0.00,meteohub,2013-10-22 15:17:00,
2013-10-22 09:22:00,30.9,21.2,31.91,NW,315,2.0,3.0,67,0.00,,,0.00,meteohub,2013-10-22 15:22:00,
2013-10-22 09:27:00,31.6,21.6,31.91,North,0,2.0,2.0,66,0.00,,,0.00,meteohub,2013-10-22 15:27:00,
2013-10-22 09:32:00,32.4,21.6,31.91,NE,45,0.0,3.0,64,0.00,,,0.00,meteohub,2013-10-22 15:32:00,
2013-10-22 09:37:00,33.3,22.5,31.91,NW,315,2.0,3.0,64,0.00,,,0.00,meteohub,2013-10-22 15:37:00,
2013-10-22 09:42:00,34.2,22.5,31.91,NW,315,2.0,3.0,62,0.00,,,0.00,meteohub,2013-10-22 15:42:00,
2013-10-22 09:47:00,35.1,23.0,31.91,NE,45,2.0,3.0,61,0.00,,,0.00,meteohub,2013-10-22 15:47:00,
2013-10-22 09:52:00,36.0,23.0,31.91,West,270,2.0,2.0,59,0.00,,,0.00,meteohub,2013-10-22 15:52:00,
2013-10-22 09:57:00,36.9,23.0,31.91,North,0,2.0,2.0,57,0.00,,,0.00,meteohub,2013-10-22 15:57:00,
2013-10-22 10:02:00,37.9,25.3,31.91,SW,225,1.0,2.0,60,0.00,,,0.00,meteohub,2013-10-22 16:02:00,
2013-10-22 10:07:00,39.0,25.5,31.91,West,270,2.0,3.0,58,0.00,,,0.00,meteohub,2013-10-22 16:07:00,
2013-10-22 10:12:00,39.9,25.5,31.91,SW,225,2.0,3.0,56,0.00,,,0.00,meteohub,2013-10-22 16:12:00,
2013-10-22 10:17:00,40.6,25.7,31.91,NNE,23,4.0,4.0,55,0.00,,,0.00,meteohub,2013-10-22 16:17:00,
2013-10-22 10:22:00,40.6,25.7,31.91,NNE,23,4.0,4.0,55,0.00,,,0.00,meteohub,2013-10-22 16:22:00,
2013-10-22 10:27:00,41.4,25.5,31.91,SW,225,2.0,4.0,53,0.00,,,0.00,meteohub,2013-10-22 16:27:00,
2013-10-22 10:32:00,42.1,25.3,31.91,SE,135,2.0,4.0,51,0.00,,,0.00,meteohub,2013-10-22 16:32:00,
2013-10-22 10:37:00,43.0,24.6,31.91,SE,135,4.0,4.0,48,0.00,,,0.00,meteohub,2013-10-22 16:37:00,
2013-10-22 10:42:00,43.7,23.2,31.91,SW,225,2.0,4.0,44,0.00,,,0.00,meteohub,2013-10-22 16:42:00,
2013-10-22 10:47:00,44.6,23.0,31.91,North,0,3.0,4.0,42,0.00,,,0.00,meteohub,2013-10-22 16:47:00,
2013-10-22 10:52:00,44.8,23.0,31.91,NNE,23,4.0,4.0,42,0.00,,,0.00,meteohub,2013-10-22 16:52:00,
2013-10-22 10:57:00,44.8,22.5,31.91,NE,45,4.0,5.0,41,0.00,,,0.00,meteohub,2013-10-22 16:57:00,
2013-10-22 11:02:00,45.1,22.8,31.90,NW,315,2.0,5.0,41,0.00,,,0.00,meteohub,2013-10-22 17:02:00,
2013-10-22 11:07:00,45.1,22.8,31.91,West,270,3.0,5.0,41,0.00,,,0.00,meteohub,2013-10-22 17:07:00,
2013-10-22 11:12:00,45.7,23.4,31.91,NE,45,4.0,5.0,41,0.00,,,0.00,meteohub,2013-10-22 17:12:00,
2013-10-22 11:17:00,45.9,22.3,31.90,SW,225,2.0,5.0,39,0.00,,,0.00,meteohub,2013-10-22 17:17:00,
2013-10-22 11:22:00,46.2,23.9,31.90,NW,315,4.0,5.0,41,0.00,,,0.00,meteohub,2013-10-22 17:22:00,
2013-10-22 11:27:00,46.6,22.3,31.90,SSW,203,3.0,5.0,38,0.00,,,0.00,meteohub,2013-10-22 17:27:00,
2013-10-22 11:32:00,46.6,21.0,31.90,West,270,5.0,5.0,36,0.00,,,0.00,meteohub,2013-10-22 17:32:00,
2013-10-22 11:37:00,46.9,22.6,31.90,NE,45,5.0,5.0,38,0.00,,,0.00,meteohub,2013-10-22 17:37:00,
2013-10-22 11:42:00,47.5,21.9,31.90,NNW,338,4.0,5.0,36,0.00,,,0.00,meteohub,2013-10-22 17:42:00,
2013-10-22 11:48:00,48.2,21.7,31.90,NE,45,3.0,5.0,35,0.00,,,0.00,meteohub,2013-10-22 17:48:00,
2013-10-22 11:53:00,48.9,22.5,31.90,North,0,6.0,6.0,35,0.00,,,0.00,meteohub,2013-10-22 17:53:00,
2013-10-22 11:58:00,49.3,22.1,31.90,NE,45,5.0,6.0,34,0.00,,,0.00,meteohub,2013-10-22 17:58:00,
2013-10-22 12:03:00,49.3,22.1,31.90,NE,45,4.0,6.0,34,0.00,,,0.00,meteohub,2013-10-22 18:03:00,
2013-10-22 12:08:00,49.8,21.2,31.89,NE,45,3.0,6.0,32,0.00,,,0.00,meteohub,2013-10-22 18:08:00,
2013-10-22 12:13:00,50.7,21.9,31.89,NE,45,8.0,8.0,32,0.00,,,0.00,meteohub,2013-10-22 18:13:00,
2013-10-22 12:19:00,50.4,19.2,31.89,NE,45,7.0,8.0,29,0.00,,,0.00,meteohub,2013-10-22 18:19:00,
2013-10-22 12:24:00,50.2,19.2,31.89,South,180,2.0,8.0,29,0.00,,,0.00,meteohub,2013-10-22 18:24:00,
2013-10-22 12:29:00,51.3,21.6,31.89,East,90,4.0,8.0,31,0.00,,,0.00,meteohub,2013-10-22 18:29:00,
2013-10-22 12:34:00,51.8,20.5,31.89,North,0,4.0,8.0,29,0.00,,,0.00,meteohub,2013-10-22 18:34:00,
2013-10-22 12:39:00,52.3,20.1,31.88,North,0,8.0,8.0,28,0.00,,,0.00,meteohub,2013-10-22 18:39:00,
2013-10-22 12:44:00,53.1,19.9,31.88,NE,45,7.0,8.0,27,0.00,,,0.00,meteohub,2013-10-22 18:44:00,
2013-10-22 12:50:00,52.7,19.6,31.88,West,270,4.0,8.0,27,0.00,,,0.00,meteohub,2013-10-22 18:50:00,
2013-10-22 12:55:00,53.6,18.7,31.88,North,0,4.0,8.0,25,0.00,,,0.00,meteohub,2013-10-22 18:55:00,
2013-10-22 13:00:00,53.6,17.6,31.88,West,270,2.0,9.0,24,0.00,,,0.00,meteohub,2013-10-22 19:00:00,
2013-10-22 13:05:00,54.1,18.1,31.88,NE,45,7.0,9.0,24,0.00,,,0.00,meteohub,2013-10-22 19:05:00,
2013-10-22 13:10:00,53.6,17.6,31.87,SE,135,3.0,7.0,24,0.00,,,0.00,meteohub,2013-10-22 19:10:00,
2013-10-22 13:15:00,54.7,18.5,31.88,SW,225,5.0,7.0,24,0.00,,,0.00,meteohub,2013-10-22 19:15:00,
2013-10-22 13:21:00,54.3,17.2,31.87,SW,225,6.0,7.0,23,0.00,,,0.00,meteohub,2013-10-22 19:21:00,
2013-10-22 13:26:00,54.0,16.0,31.87,SW,225,4.0,7.0,22,0.00,,,0.00,meteohub,2013-10-22 19:26:00,
2013-10-22 13:31:00,54.3,17.2,31.87,SW,225,3.0,6.0,23,0.00,,,0.00,meteohub,2013-10-22 19:31:00,
2013-10-22 13:36:00,54.7,18.5,31.87,East,90,3.0,6.0,24,0.00,,,0.00,meteohub,2013-10-22 19:36:00,
2013-10-22 13:41:00,54.7,17.6,31.86,NW,315,5.0,5.0,23,0.00,,,0.00,meteohub,2013-10-22 19:41:00,
2013-10-22 13:47:00,55.2,18.1,31.86,East,90,4.0,5.0,23,0.00,,,0.00,meteohub,2013-10-22 19:47:00,
2013-10-22 13:52:00,55.4,20.1,31.86,NE,45,6.0,6.0,25,0.00,,,0.00,meteohub,2013-10-22 19:52:00,
2013-10-22 13:57:00,55.4,20.1,31.86,NNE,23,6.0,6.0,25,0.00,,,0.00,meteohub,2013-10-22 19:57:00,
2013-10-22 14:02:00,55.6,20.3,31.86,NE,45,5.0,9.0,25,0.00,,,0.00,meteohub,2013-10-22 20:02:00,
2013-10-22 14:07:00,55.6,20.3,31.86,NE,45,5.0,9.0,25,0.00,,,0.00,meteohub,2013-10-22 20:07:00,
2013-10-22 14:12:00,55.6,20.3,31.86,NE,45,6.0,8.0,25,0.00,,,0.00,meteohub,2013-10-22 20:12:00,
2013-10-22 14:17:00,55.6,20.3,31.86,WNW,293,3.0,6.0,25,0.00,,,0.00,meteohub,2013-10-22 20:17:00,
2013-10-22 14:22:00,54.9,16.7,31.86,NE,45,4.0,6.0,22,0.00,,,0.00,meteohub,2013-10-22 20:22:00,
2013-10-22 14:27:00,54.3,16.3,31.86,East,90,6.0,6.0,22,0.00,,,0.00,meteohub,2013-10-22 20:27:00,
2013-10-22 14:32:00,54.1,16.2,31.85,NW,315,7.0,9.0,22,0.00,,,0.00,meteohub,2013-10-22 20:32:00,
2013-10-22 14:37:00,54.5,16.3,31.85,North,0,4.0,9.0,22,0.00,,,0.00,meteohub,2013-10-22 20:37:00,
2013-10-22 14:42:00,54.9,16.7,31.85,North,0,4.0,9.0,22,0.00,,,0.00,meteohub,2013-10-22 20:42:00,
2013-10-22 14:47:00,55.0,15.8,31.84,ENE,68,9.0,9.0,21,0.00,,,0.00,meteohub,2013-10-22 20:47:00,
2013-10-22 14:52:00,55.8,19.6,31.85,South,180,4.0,9.0,24,0.00,,,0.00,meteohub,2013-10-22 20:52:00,
2013-10-22 14:57:00,55.9,20.7,31.85,South,180,4.0,9.0,25,0.00,,,0.00,meteohub,2013-10-22 20:57:00,
2013-10-22 15:02:00,56.3,19.9,31.85,SW,225,7.0,9.0,24,0.00,,,0.00,meteohub,2013-10-22 21:02:00,
2013-10-22 15:07:00,56.8,20.5,31.85,North,0,2.0,9.0,24,0.00,,,0.00,meteohub,2013-10-22 21:07:00,
2013-10-22 15:12:00,57.6,19.9,31.85,East,90,2.0,7.0,23,0.00,,,0.00,meteohub,2013-10-22 21:12:00,
2013-10-22 15:17:00,58.1,19.4,31.85,SW,225,5.0,7.0,22,0.00,,,0.00,meteohub,2013-10-22 21:17:00,
2013-10-22 15:22:00,58.1,19.4,31.85,West,270,4.0,6.0,22,0.00,,,0.00,meteohub,2013-10-22 21:22:00,
2013-10-22 15:27:00,57.6,19.0,31.85,NE,45,3.0,6.0,22,0.00,,,0.00,meteohub,2013-10-22 21:27:00,
2013-10-22 15:32:00,57.7,19.2,31.85,SW,225,5.0,10.0,22,0.00,,,0.00,meteohub,2013-10-22 21:32:00,
2013-10-22 15:37:00,57.4,18.9,31.85,SW,225,5.0,10.0,22,0.00,,,0.00,meteohub,2013-10-22 21:37:00,
2013-10-22 15:42:00,57.6,19.0,31.85,NW,315,4.0,10.0,22,0.00,,,0.00,meteohub,2013-10-22 21:42:00,
2013-10-22 15:47:00,57.7,20.1,31.85,WSW,248,9.0,10.0,23,0.00,,,0.00,meteohub,2013-10-22 21:47:00,
2013-10-22 15:52:00,57.6,19.0,31.85,SW,225,5.0,10.0,22,0.00,,,0.00,meteohub,2013-10-22 21:52:00,
2013-10-22 15:57:00,57.2,18.7,31.85,West,270,8.0,10.0,22,0.00,,,0.00,meteohub,2013-10-22 21:57:00,
2013-10-22 16:02:00,57.0,19.6,31.85,NE,45,4.0,10.0,23,0.00,,,0.00,meteohub,2013-10-22 22:02:00,
2013-10-22 16:07:00,57.0,19.6,31.85,NE,45,4.0,8.0,23,0.00,,,0.00,meteohub,2013-10-22 22:07:00,
2013-10-22 16:12:00,56.3,19.0,31.85,SW,225,5.0,8.0,23,0.00,,,0.00,meteohub,2013-10-22 22:12:00,
2013-10-22 16:17:00,56.1,18.9,31.85,SW,225,2.0,6.0,23,0.00,,,0.00,meteohub,2013-10-22 22:17:00,
2013-10-22 16:22:00,55.8,18.5,31.85,NW,315,5.0,7.0,23,0.00,,,0.00,meteohub,2013-10-22 22:22:00,
2013-10-22 16:27:00,54.9,15.6,31.85,NW,315,2.0,7.0,21,0.00,,,0.00,meteohub,2013-10-22 22:27:00,
2013-10-22 16:32:00,54.1,15.1,31.85,NNE,23,4.0,6.0,21,0.00,,,0.00,meteohub,2013-10-22 22:32:00,
2013-10-22 16:37:00,53.6,14.5,31.85,SW,225,6.0,6.0,21,0.00,,,0.00,meteohub,2013-10-22 22:37:00,
2013-10-22 16:42:00,53.2,15.4,31.85,SW,225,5.0,6.0,22,0.00,,,0.00,meteohub,2013-10-22 22:42:00,
2013-10-22 16:47:00,53.1,15.3,31.85,South,180,3.0,7.0,22,0.00,,,0.00,meteohub,2013-10-22 22:47:00,
2013-10-22 16:52:00,52.9,16.2,31.86,SW,225,6.0,7.0,23,0.00,,,0.00,meteohub,2013-10-22 22:52:00,
2013-10-22 16:57:00,52.7,16.0,31.86,North,0,4.0,7.0,23,0.00,,,0.00,meteohub,2013-10-22 22:57:00,
2013-10-22 17:02:00,52.3,15.6,31.86,West,270,5.0,6.0,23,0.00,,,0.00,meteohub,2013-10-22 23:02:00,
2013-10-22 17:07:00,52.2,15.4,31.86,West,270,4.0,7.0,23,0.00,,,0.00,meteohub,2013-10-22 23:07:00,
2013-10-22 17:12:00,51.8,15.1,31.86,West,270,2.0,7.0,23,0.00,,,0.00,meteohub,2013-10-22 23:12:00,
2013-10-22 17:17:00,51.4,15.8,31.86,NW,315,6.0,7.0,24,0.00,,,0.00,meteohub,2013-10-22 23:17:00,
2013-10-22 17:22:00,51.1,15.4,31.86,West,270,4.0,7.0,24,0.00,,,0.00,meteohub,2013-10-22 23:22:00,
2013-10-22 17:27:00,50.5,15.1,31.86,NW,315,6.0,6.0,24,0.00,,,0.00,meteohub,2013-10-22 23:27:00,
2013-10-22 17:32:00,50.0,14.5,31.86,NW,315,2.0,6.0,24,0.00,,,0.00,meteohub,2013-10-22 23:32:00,
2013-10-22 17:37:00,49.5,16.0,31.86,West,270,2.0,6.0,26,0.00,,,0.00,meteohub,2013-10-22 23:37:00,
2013-10-22 17:42:00,48.6,15.3,31.86,West,270,1.0,6.0,26,0.00,,,0.00,meteohub,2013-10-22 23:42:00,
2013-10-22 17:47:00,47.7,15.3,31.86,SW,225,1.0,3.0,27,0.00,,,0.00,meteohub,2013-10-22 23:47:00,
2013-10-22 17:52:00,46.6,15.3,31.86,NE,45,2.0,2.0,28,0.00,,,0.00,meteohub,2013-10-22 23:52:00,
2013-10-22 17:57:00,46.0,12.2,31.86,NW,315,2.0,2.0,25,0.00,,,0.00,meteohub,2013-10-22 23:57:00,
2013-10-22 18:02:00,45.7,11.8,31.86,West,270,1.0,2.0,25,0.00,,,0.00,meteohub,2013-10-23 00:02:00,
2013-10-22 18:07:00,45.7,11.8,31.86,West,270,1.0,2.0,25,0.00,,,0.00,meteohub,2013-10-23 00:07:00,
2013-10-22 18:12:00,43.7,11.8,31.86,East,90,0.0,2.0,27,0.00,,,0.00,meteohub,2013-10-23 00:12:00,
2013-10-22 18:17:00,43.2,12.2,31.86,NW,315,1.0,2.0,28,0.00,,,0.00,meteohub,2013-10-23 00:17:00,
2013-10-22 18:22:00,42.4,12.4,31.86,West,270,0.0,2.0,29,0.00,,,0.00,meteohub,2013-10-23 00:22:00,
2013-10-22 18:27:00,41.7,11.8,31.86,East,90,0.0,2.0,29,0.00,,,0.00,meteohub,2013-10-23 00:27:00,
2013-10-22 18:32:00,41.0,13.5,31.86,SW,225,2.0,2.0,32,0.00,,,0.00,meteohub,2013-10-23 00:32:00,
2013-10-22 18:37:00,40.1,14.0,31.86,SW,225,2.0,2.0,34,0.00,,,0.00,meteohub,2013-10-23 00:37:00,
2013-10-22 18:42:00,39.2,13.8,31.87,SW,225,1.0,2.0,35,0.00,,,0.00,meteohub,2013-10-23 00:42:00,
2013-10-22 18:47:00,38.8,15.4,31.87,West,270,2.0,2.0,38,0.00,,,0.00,meteohub,2013-10-23 00:47:00,
2013-10-22 18:52:00,38.8,15.4,31.87,South,180,3.0,3.0,38,0.00,,,0.00,meteohub,2013-10-23 00:52:00,
2013-10-22 18:57:00,39.4,16.5,31.87,SW,225,2.0,3.0,39,0.00,,,0.00,meteohub,2013-10-23 00:57:00,
2013-10-22 19:02:00,39.4,16.5,31.87,NW,315,2.0,3.0,39,0.00,,,0.00,meteohub,2013-10-23 01:02:00,
2013-10-22 19:07:00,39.4,17.1,31.87,SE,135,1.0,3.0,40,0.00,,,0.00,meteohub,2013-10-23 01:07:00,
2013-10-22 19:12:00,39.6,18.3,31.87,NE,45,4.0,4.0,42,0.00,,,0.00,meteohub,2013-10-23 01:12:00,
2013-10-22 19:17:00,40.6,20.5,31.87,East,90,3.0,4.0,44,0.00,,,0.00,meteohub,2013-10-23 01:17:00,
2013-10-22 19:22:00,41.2,20.3,31.88,SW,225,1.0,4.0,43,0.00,,,0.00,meteohub,2013-10-23 01:22:00,
2013-10-22 19:27:00,40.8,20.7,31.87,SW,225,0.0,4.0,44,0.00,,,0.00,meteohub,2013-10-23 01:27:00,
2013-10-22 19:32:00,40.1,19.4,31.88,SW,225,2.0,3.0,43,0.00,,,0.00,meteohub,2013-10-23 01:32:00,
2013-10-22 19:37:00,39.2,19.0,31.88,SW,225,2.0,2.0,44,0.00,,,0.00,meteohub,2013-10-23 01:37:00,
2013-10-22 19:42:00,38.3,18.9,31.88,SW,225,2.0,2.0,45,0.00,,,0.00,meteohub,2013-10-23 01:42:00,
2013-10-22 19:47:00,37.6,18.7,31.88,South,180,1.0,4.0,46,0.00,,,0.00,meteohub,2013-10-23 01:47:00,
2013-10-22 19:52:00,37.0,16.7,31.88,SW,225,0.0,5.0,43,0.00,,,0.00,meteohub,2013-10-23 01:52:00,
2013-10-22 19:57:00,37.0,17.1,31.88,West,270,2.0,5.0,44,0.00,,,0.00,meteohub,2013-10-23 01:57:00,
2013-10-22 20:02:00,37.0,17.1,31.88,SW,225,2.0,3.0,44,0.00,,,0.00,meteohub,2013-10-23 02:02:00,
2013-10-22 20:07:00,37.0,17.1,31.88,SW,225,2.0,2.0,44,0.00,,,0.00,meteohub,2013-10-23 02:07:00,
2013-10-22 20:12:00,36.5,17.2,31.88,SW,225,2.0,3.0,45,0.00,,,0.00,meteohub,2013-10-23 02:12:00,
2013-10-22 20:17:00,36.5,17.6,31.88,SW,225,2.0,3.0,46,0.00,,,0.00,meteohub,2013-10-23 02:17:00,
2013-10-22 20:22:00,36.5,17.6,31.88,SW,225,2.0,4.0,46,0.00,,,0.00,meteohub,2013-10-23 02:22:00,
2013-10-22 20:27:00,36.1,17.8,31.88,SW,225,2.0,4.0,47,0.00,,,0.00,meteohub,2013-10-23 02:27:00,
2013-10-22 20:32:00,35.8,17.6,31.88,SW,225,2.0,2.0,47,0.00,,,0.00,meteohub,2013-10-23 02:32:00,
2013-10-22 20:37:00,35.2,18.0,31.88,SW,225,2.0,3.0,49,0.00,,,0.00,meteohub,2013-10-23 02:37:00,
2013-10-22 20:42:00,35.1,18.3,31.88,West,270,2.0,3.0,50,0.00,,,0.00,meteohub,2013-10-23 02:42:00,
2013-10-22 20:47:00,34.7,18.5,31.89,SW,225,3.0,3.0,51,0.00,,,0.00,meteohub,2013-10-23 02:47:00,
2013-10-22 20:52:00,34.5,18.7,31.88,West,270,3.0,3.0,52,0.00,,,0.00,meteohub,2013-10-23 02:52:00,
2013-10-22 20:57:00,34.5,18.7,31.89,West,270,4.0,4.0,52,0.00,,,0.00,meteohub,2013-10-23 02:57:00,
2013-10-22 21:02:00,34.9,19.4,31.89,NW,315,2.0,4.0,53,0.00,,,0.00,meteohub,2013-10-23 03:02:00,
2013-10-22 21:07:00,35.1,19.6,31.89,West,270,2.0,4.0,53,0.00,,,0.00,meteohub,2013-10-23 03:07:00,
2013-10-22 21:12:00,34.9,19.4,31.89,SW,225,3.0,4.0,53,0.00,,,0.00,meteohub,2013-10-23 03:12:00,
2013-10-22 21:17:00,34.3,19.0,31.89,SW,225,2.0,3.0,53,0.00,,,0.00,meteohub,2013-10-23 03:17:00,
2013-10-22 21:22:00,34.0,18.7,31.88,SW,225,2.0,3.0,53,0.00,,,0.00,meteohub,2013-10-23 03:22:00,
2013-10-22 21:27:00,33.6,18.7,31.89,SW,225,2.0,3.0,54,0.00,,,0.00,meteohub,2013-10-23 03:27:00,
2013-10-22 21:32:00,33.1,18.3,31.89,SW,225,2.0,2.0,54,0.00,,,0.00,meteohub,2013-10-23 03:32:00,
2013-10-22 21:37:00,32.7,18.3,31.89,South,180,3.0,3.0,55,0.00,,,0.00,meteohub,2013-10-23 03:37:00,
2013-10-22 21:42:00,32.7,18.7,31.89,SW,225,2.0,3.0,56,0.00,,,0.00,meteohub,2013-10-23 03:42:00,
2013-10-22 21:47:00,32.5,19.0,31.89,SW,225,3.0,3.0,57,0.00,,,0.00,meteohub,2013-10-23 03:47:00,
2013-10-22 21:52:00,32.9,19.4,31.89,SW,225,2.0,4.0,57,0.00,,,0.00,meteohub,2013-10-23 03:52:00,
2013-10-22 21:57:00,32.9,19.4,31.88,South,180,1.0,4.0,57,0.00,,,0.00,meteohub,2013-10-23 03:57:00,
2013-10-22 22:01:00,32.5,18.5,31.88,South,180,0.0,4.0,56,0.00,,,0.00,meteohub,2013-10-23 04:01:00,
2013-10-22 22:02:00,32.5,18.5,31.89,South,180,0.0,4.0,56,0.00,,,0.00,meteohub,2013-10-23 04:02:00,
2013-10-22 22:03:00,32.5,18.5,31.89,South,180,0.0,4.0,56,0.00,,,0.00,meteohub,2013-10-23 04:03:00,
2013-10-22 22:04:00,32.5,18.5,31.89,South,180,0.0,4.0,56,0.00,,,0.00,meteohub,2013-10-23 04:04:00,
2013-10-22 22:05:00,32.5,18.5,31.89,South,180,0.0,4.0,56,0.00,,,0.00,meteohub,2013-10-23 04:05:00,
2013-10-22 22:10:00,31.6,18.5,31.89,SW,225,2.0,2.0,58,0.00,,,0.00,meteohub,2013-10-23 04:10:00,
2013-10-22 22:15:00,31.3,18.1,31.88,SW,225,1.0,2.0,58,0.00,,,0.00,meteohub,2013-10-23 04:15:00,
2013-10-22 22:20:00,30.9,18.3,31.88,SW,225,2.0,2.0,59,0.00,,,0.00,meteohub,2013-10-23 04:20:00,
2013-10-22 22:26:00,30.7,18.5,31.88,SW,225,2.0,2.0,60,0.00,,,0.00,meteohub,2013-10-23 04:26:00,
2013-10-22 22:31:00,30.6,18.3,31.89,SW,225,2.0,2.0,60,0.00,,,0.00,meteohub,2013-10-23 04:31:00,
2013-10-22 22:36:00,30.4,18.5,31.89,SW,225,2.0,2.0,61,0.00,,,0.00,meteohub,2013-10-23 04:36:00,
2013-10-22 22:41:00,30.4,18.9,31.89,SW,225,2.0,2.0,62,0.00,,,0.00,meteohub,2013-10-23 04:41:00,
2013-10-22 22:46:00,30.4,18.9,31.89,SW,225,2.0,2.0,62,0.00,,,0.00,meteohub,2013-10-23 04:46:00,
2013-10-22 22:51:00,30.4,19.2,31.88,SW,225,2.0,2.0,63,0.00,,,0.00,meteohub,2013-10-23 04:51:00,
2013-10-22 22:57:00,30.7,19.6,31.88,West,270,2.0,2.0,63,0.00,,,0.00,meteohub,2013-10-23 04:57:00,
2013-10-22 23:02:00,30.9,20.1,31.89,West,270,2.0,2.0,64,0.00,,,0.00,meteohub,2013-10-23 05:02:00,
2013-10-22 23:07:00,30.7,19.9,31.88,SW,225,2.0,2.0,64,0.00,,,0.00,meteohub,2013-10-23 05:07:00,
2013-10-22 23:12:00,30.6,19.8,31.88,SW,225,2.0,2.0,64,0.00,,,0.00,meteohub,2013-10-23 05:12:00,
2013-10-22 23:17:00,30.6,19.8,31.89,West,270,3.0,3.0,64,0.00,,,0.00,meteohub,2013-10-23 05:17:00,
2013-10-22 23:22:00,30.6,20.1,31.88,SW,225,2.0,3.0,65,0.00,,,0.00,meteohub,2013-10-23 05:22:00,
2013-10-22 23:27:00,30.6,20.1,31.89,SW,225,2.0,4.0,65,0.00,,,0.00,meteohub,2013-10-23 05:27:00,
2013-10-22 23:32:00,30.2,19.6,31.89,SW,225,2.0,4.0,64,0.00,,,0.00,meteohub,2013-10-23 05:32:00,
2013-10-22 23:37:00,29.8,19.9,31.88,SW,225,2.0,4.0,66,0.00,,,0.00,meteohub,2013-10-23 05:37:00,
2013-10-22 23:42:00,29.8,19.9,31.88,SW,225,2.0,3.0,66,0.00,,,0.00,meteohub,2013-10-23 05:42:00,
2013-10-22 23:47:00,30.0,20.5,31.88,SW,225,2.0,3.0,67,0.00,,,0.00,meteohub,2013-10-23 05:47:00,
2013-10-22 23:52:00,30.0,20.5,31.88,SW,225,3.0,3.0,67,0.00,,,0.00,meteohub,2013-10-23 05:52:00,
2013-10-22 23:57:00,30.0,20.5,31.88,SW,225,2.0,3.0,67,0.00,,,0.00,meteohub,2013-10-23 05:57:00,